Terminal Aerodrome Forecast
Issued by NWS

Home | Current Version | Previous Version | Graphics & Text | Print | Product List | Glossary On
Versions: 1 2 3 4 5 6 7 8 9 10 11 12 13 14 15 16 17
000
FTUS43 KTOP 281120
TAFMHK
TAF
KMHK 281120Z 2812/2912 02005KT P6SM SCT040 BKN250
     FM290200 06006KT P6SM VCTS BKN040CB
     FM290900 05006KT P6SM BKN100=

USA.gov is the U.S. government's official web portal to all federal, state and local government web resources and services.